sensor_id;sensor_type;location;lat;lon;timestamp;P1;durP1;ratioP1;P2;durP2;ratioP2
38083;SDS011;23894;51.466;7.444;2023-07-29T00:01:43;7.80;;;4.55;;
38083;SDS011;23894;51.466;7.444;2023-07-29T00:03:45;6.28;;;3.80;;
38083;SDS011;23894;51.466;7.444;2023-07-29T00:05:47;8.85;;;4.50;;
38083;SDS011;23894;51.466;7.444;2023-07-29T00:07:49;5.93;;;3.75;;
38083;SDS011;23894;51.466;7.444;2023-07-29T00:09:52;5.45;;;3.60;;
38083;SDS011;23894;51.466;7.444;2023-07-29T00:11:54;5.80;;;3.55;;
38083;SDS011;23894;51.466;7.444;2023-07-29T00:13:56;5.53;;;3.67;;
38083;SDS011;23894;51.466;7.444;2023-07-29T00:15:58;6.13;;;3.70;;
38083;SDS011;23894;51.466;7.444;2023-07-29T00:18:02;5.70;;;3.80;;
38083;SDS011;23894;51.466;7.444;2023-07-29T00:20:04;6.22;;;3.22;;
38083;SDS011;23894;51.466;7.444;2023-07-29T00:22:07;5.60;;;3.35;;
38083;SDS011;23894;51.466;7.444;2023-07-29T00:24:09;6.18;;;3.70;;
38083;SDS011;23894;51.466;7.444;2023-07-29T00:26:11;5.72;;;3.90;;
38083;SDS011;23894;51.466;7.444;2023-07-29T00:28:15;6.22;;;3.90;;
38083;SDS011;23894;51.466;7.444;2023-07-29T00:30:17;7.30;;;3.97;;
38083;SDS011;23894;51.466;7.444;2023-07-29T00:32:19;6.18;;;4.25;;
38083;SDS011;23894;51.466;7.444;2023-07-29T00:34:22;7.80;;;3.67;;
38083;SDS011;23894;51.466;7.444;2023-07-29T00:36:24;5.70;;;3.55;;
38083;SDS011;23894;51.466;7.444;2023-07-29T00:38:26;5.60;;;3.72;;
38083;SDS011;23894;51.466;7.444;2023-07-29T00:40:29;5.95;;;3.38;;
38083;SDS011;23894;51.466;7.444;2023-07-29T00:42:31;6.50;;;4.28;;
38083;SDS011;23894;51.466;7.444;2023-07-29T00:44:33;6.53;;;3.65;;
38083;SDS011;23894;51.466;7.444;2023-07-29T00:46:36;7.88;;;4.63;;
38083;SDS011;23894;51.466;7.444;2023-07-29T00:48:40;7.03;;;4.20;;
38083;SDS011;23894;51.466;7.444;2023-07-29T00:50:42;8.63;;;3.83;;
38083;SDS011;23894;51.466;7.444;2023-07-29T00:52:44;9.75;;;4.00;;
38083;SDS011;23894;51.466;7.444;2023-07-29T00:54:47;6.38;;;3.83;;
38083;SDS011;23894;51.466;7.444;2023-07-29T00:56:49;5.75;;;3.70;;
38083;SDS011;23894;51.466;7.444;2023-07-29T00:58:51;6.30;;;4.15;;
38083;SDS011;23894;51.466;7.444;2023-07-29T01:00:59;7.32;;;3.63;;
38083;SDS011;23894;51.466;7.444;2023-07-29T01:03:02;6.47;;;3.67;;
38083;SDS011;23894;51.466;7.444;2023-07-29T01:05:04;5.85;;;3.80;;
38083;SDS011;23894;51.466;7.444;2023-07-29T01:11:55;5.82;;;3.30;;
38083;SDS011;23894;51.466;7.444;2023-07-29T01:16:25;5.88;;;3.53;;
38083;SDS011;23894;51.466;7.444;2023-07-29T01:18:31;8.10;;;4.00;;
38083;SDS011;23894;51.466;7.444;2023-07-29T01:20:34;7.50;;;4.25;;
38083;SDS011;23894;51.466;7.444;2023-07-29T01:22:39;7.78;;;3.85;;
38083;SDS011;23894;51.466;7.444;2023-07-29T01:24:41;8.35;;;3.70;;
38083;SDS011;23894;51.466;7.444;2023-07-29T01:26:43;7.03;;;3.55;;
38083;SDS011;23894;51.466;7.444;2023-07-29T01:28:47;5.10;;;2.83;;
38083;SDS011;23894;51.466;7.444;2023-07-29T01:30:49;7.32;;;4.00;;
38083;SDS011;23894;51.466;7.444;2023-07-29T01:33:04;6.10;;;3.70;;
38083;SDS011;23894;51.466;7.444;2023-07-29T01:37:30;8.77;;;4.40;;
38083;SDS011;23894;51.466;7.444;2023-07-29T01:39:33;8.57;;;4.10;;
38083;SDS011;23894;51.466;7.444;2023-07-29T01:41:36;6.82;;;4.25;;
38083;SDS011;23894;51.466;7.444;2023-07-29T01:43:38;6.80;;;4.18;;
38083;SDS011;23894;51.466;7.444;2023-07-29T01:45:45;6.25;;;3.83;;
38083;SDS011;23894;51.466;7.444;2023-07-29T01:47:48;7.47;;;3.85;;
38083;SDS011;23894;51.466;7.444;2023-07-29T01:49:50;6.55;;;3.65;;
38083;SDS011;23894;51.466;7.444;2023-07-29T01:51:52;5.50;;;3.05;;
38083;SDS011;23894;51.466;7.444;2023-07-29T01:53:54;5.07;;;3.08;;
38083;SDS011;23894;51.466;7.444;2023-07-29T01:55:56;6.22;;;3.70;;
38083;SDS011;23894;51.466;7.444;2023-07-29T01:57:57;7.43;;;3.42;;
38083;SDS011;23894;51.466;7.444;2023-07-29T02:02:02;6.18;;;3.10;;
38083;SDS011;23894;51.466;7.444;2023-07-29T02:04:04;5.68;;;3.40;;
38083;SDS011;23894;51.466;7.444;2023-07-29T02:06:06;5.80;;;3.45;;
38083;SDS011;23894;51.466;7.444;2023-07-29T02:08:07;5.88;;;3.28;;
38083;SDS011;23894;51.466;7.444;2023-07-29T02:12:11;9.18;;;3.35;;
38083;SDS011;23894;51.466;7.444;2023-07-29T02:14:14;5.32;;;3.08;;
38083;SDS011;23894;51.466;7.444;2023-07-29T02:16:16;10.68;;;2.92;;
38083;SDS011;23894;51.466;7.444;2023-07-29T02:18:17;8.32;;;3.50;;
38083;SDS011;23894;51.466;7.444;2023-07-29T02:22:21;5.47;;;3.10;;
38083;SDS011;23894;51.466;7.444;2023-07-29T02:24:24;6.15;;;3.50;;
38083;SDS011;23894;51.466;7.444;2023-07-29T02:26:26;8.57;;;3.22;;
38083;SDS011;23894;51.466;7.444;2023-07-29T02:28:28;5.47;;;3.10;;
38083;SDS011;23894;51.466;7.444;2023-07-29T02:30:30;8.60;;;3.20;;
38083;SDS011;23894;51.466;7.444;2023-07-29T02:32:35;6.53;;;3.03;;
38083;SDS011;23894;51.466;7.444;2023-07-29T02:34:37;6.43;;;2.90;;
38083;SDS011;23894;51.466;7.444;2023-07-29T02:36:39;7.25;;;2.97;;
38083;SDS011;23894;51.466;7.444;2023-07-29T02:38:42;7.55;;;3.15;;
38083;SDS011;23894;51.466;7.444;2023-07-29T02:40:44;5.57;;;2.75;;
38083;SDS011;23894;51.466;7.444;2023-07-29T02:42:46;7.38;;;2.67;;
38083;SDS011;23894;51.466;7.444;2023-07-29T02:44:49;6.50;;;3.08;;
38083;SDS011;23894;51.466;7.444;2023-07-29T02:46:52;9.32;;;3.38;;
38083;SDS011;23894;51.466;7.444;2023-07-29T02:48:56;6.03;;;3.10;;
38083;SDS011;23894;51.466;7.444;2023-07-29T02:50:58;9.38;;;3.13;;
38083;SDS011;23894;51.466;7.444;2023-07-29T02:52:59;7.90;;;3.10;;
38083;SDS011;23894;51.466;7.444;2023-07-29T02:55:02;6.05;;;2.88;;
38083;SDS011;23894;51.466;7.444;2023-07-29T02:57:04;4.80;;;2.58;;
38083;SDS011;23894;51.466;7.444;2023-07-29T02:59:07;8.45;;;3.28;;
38083;SDS011;23894;51.466;7.444;2023-07-29T03:01:09;10.32;;;3.97;;
38083;SDS011;23894;51.466;7.444;2023-07-29T03:03:10;7.93;;;3.00;;
38083;SDS011;23894;51.466;7.444;2023-07-29T03:07:14;7.05;;;2.88;;
38083;SDS011;23894;51.466;7.444;2023-07-29T03:09:17;6.45;;;2.80;;
38083;SDS011;23894;51.466;7.444;2023-07-29T03:11:19;5.07;;;3.25;;
38083;SDS011;23894;51.466;7.444;2023-07-29T03:13:21;4.97;;;2.90;;
38083;SDS011;23894;51.466;7.444;2023-07-29T03:15:23;12.18;;;3.40;;
38083;SDS011;23894;51.466;7.444;2023-07-29T03:17:26;9.00;;;3.30;;
38083;SDS011;23894;51.466;7.444;2023-07-29T03:19:29;5.43;;;3.17;;
38083;SDS011;23894;51.466;7.444;2023-07-29T03:21:31;9.15;;;3.47;;
38083;SDS011;23894;51.466;7.444;2023-07-29T03:23:35;8.55;;;3.47;;
38083;SDS011;23894;51.466;7.444;2023-07-29T03:25:37;7.30;;;3.90;;
38083;SDS011;23894;51.466;7.444;2023-07-29T03:27:40;6.68;;;4.18;;
38083;SDS011;23894;51.466;7.444;2023-07-29T03:29:42;6.68;;;3.20;;
38083;SDS011;23894;51.466;7.444;2023-07-29T03:31:45;6.82;;;4.57;;
38083;SDS011;23894;51.466;7.444;2023-07-29T03:33:48;6.10;;;3.80;;
38083;SDS011;23894;51.466;7.444;2023-07-29T03:35:50;5.60;;;3.47;;
38083;SDS011;23894;51.466;7.444;2023-07-29T03:37:51;6.25;;;3.80;;
38083;SDS011;23894;51.466;7.444;2023-07-29T03:39:54;6.55;;;3.40;;
38083;SDS011;23894;51.466;7.444;2023-07-29T03:41:56;6.72;;;4.40;;
38083;SDS011;23894;51.466;7.444;2023-07-29T03:43:59;7.57;;;3.92;;
38083;SDS011;23894;51.466;7.444;2023-07-29T03:46:01;6.13;;;4.18;;
38083;SDS011;23894;51.466;7.444;2023-07-29T03:48:03;7.10;;;3.78;;
38083;SDS011;23894;51.466;7.444;2023-07-29T03:50:06;14.07;;;4.43;;
38083;SDS011;23894;51.466;7.444;2023-07-29T03:52:08;6.30;;;4.07;;
38083;SDS011;23894;51.466;7.444;2023-07-29T03:54:10;6.20;;;4.25;;
38083;SDS011;23894;51.466;7.444;2023-07-29T03:58:15;5.40;;;3.45;;
38083;SDS011;23894;51.466;7.444;2023-07-29T04:00:17;8.50;;;4.25;;
38083;SDS011;23894;51.466;7.444;2023-07-29T04:02:19;6.57;;;4.05;;
38083;SDS011;23894;51.466;7.444;2023-07-29T04:04:20;6.85;;;4.20;;
38083;SDS011;23894;51.466;7.444;2023-07-29T04:08:25;7.22;;;4.55;;
38083;SDS011;23894;51.466;7.444;2023-07-29T04:10:27;7.15;;;4.15;;
38083;SDS011;23894;51.466;7.444;2023-07-29T04:12:33;6.45;;;4.30;;
38083;SDS011;23894;51.466;7.444;2023-07-29T04:14:35;9.48;;;4.53;;
38083;SDS011;23894;51.466;7.444;2023-07-29T04:16:37;6.95;;;4.03;;
38083;SDS011;23894;51.466;7.444;2023-07-29T04:18:39;6.78;;;4.38;;
38083;SDS011;23894;51.466;7.444;2023-07-29T04:20:41;8.05;;;4.30;;
38083;SDS011;23894;51.466;7.444;2023-07-29T04:22:43;7.85;;;4.20;;
38083;SDS011;23894;51.466;7.444;2023-07-29T04:24:46;8.00;;;4.13;;
38083;SDS011;23894;51.466;7.444;2023-07-29T04:26:48;6.38;;;3.90;;
38083;SDS011;23894;51.466;7.444;2023-07-29T04:28:49;8.57;;;4.20;;
38083;SDS011;23894;51.466;7.444;2023-07-29T04:32:54;6.93;;;4.43;;
38083;SDS011;23894;51.466;7.444;2023-07-29T04:34:56;9.35;;;4.03;;
38083;SDS011;23894;51.466;7.444;2023-07-29T04:36:58;8.82;;;4.65;;
38083;SDS011;23894;51.466;7.444;2023-07-29T04:38:59;8.95;;;4.53;;
38083;SDS011;23894;51.466;7.444;2023-07-29T04:43:03;9.40;;;4.95;;
38083;SDS011;23894;51.466;7.444;2023-07-29T04:45:06;6.10;;;4.43;;
38083;SDS011;23894;51.466;7.444;2023-07-29T04:47:08;8.35;;;4.82;;
38083;SDS011;23894;51.466;7.444;2023-07-29T04:49:10;7.30;;;5.57;;
38083;SDS011;23894;51.466;7.444;2023-07-29T04:51:12;6.85;;;4.55;;
38083;SDS011;23894;51.466;7.444;2023-07-29T04:53:15;8.52;;;5.35;;
38083;SDS011;23894;51.466;7.444;2023-07-29T04:55:17;7.47;;;5.80;;
38083;SDS011;23894;51.466;7.444;2023-07-29T04:57:20;8.18;;;5.43;;
38083;SDS011;23894;51.466;7.444;2023-07-29T04:59:23;8.60;;;5.57;;
38083;SDS011;23894;51.466;7.444;2023-07-29T05:01:25;10.68;;;5.78;;
38083;SDS011;23894;51.466;7.444;2023-07-29T05:03:27;8.35;;;5.25;;
38083;SDS011;23894;51.466;7.444;2023-07-29T05:05:29;9.60;;;6.55;;
38083;SDS011;23894;51.466;7.444;2023-07-29T05:07:31;12.70;;;6.15;;
38083;SDS011;23894;51.466;7.444;2023-07-29T05:09:34;8.90;;;6.80;;
38083;SDS011;23894;51.466;7.444;2023-07-29T05:11:36;14.02;;;7.15;;
38083;SDS011;23894;51.466;7.444;2023-07-29T05:13:39;9.85;;;8.27;;
38083;SDS011;23894;51.466;7.444;2023-07-29T05:15:41;11.48;;;8.77;;
38083;SDS011;23894;51.466;7.444;2023-07-29T05:17:44;13.40;;;8.88;;
38083;SDS011;23894;51.466;7.444;2023-07-29T05:19:46;12.77;;;9.13;;
38083;SDS011;23894;51.466;7.444;2023-07-29T05:21:48;14.27;;;9.02;;
38083;SDS011;23894;51.466;7.444;2023-07-29T05:23:49;14.57;;;10.23;;
38083;SDS011;23894;51.466;7.444;2023-07-29T05:27:54;13.48;;;9.23;;
38083;SDS011;23894;51.466;7.444;2023-07-29T05:29:56;12.52;;;10.07;;
38083;SDS011;23894;51.466;7.444;2023-07-29T05:31:58;15.15;;;12.02;;
38083;SDS011;23894;51.466;7.444;2023-07-29T05:33:59;16.48;;;11.70;;
38083;SDS011;23894;51.466;7.444;2023-07-29T05:36:02;15.57;;;11.75;;
38083;SDS011;23894;51.466;7.444;2023-07-29T05:38:06;15.73;;;11.80;;
38083;SDS011;23894;51.466;7.444;2023-07-29T05:40:09;15.20;;;11.55;;
38083;SDS011;23894;51.466;7.444;2023-07-29T05:42:12;15.90;;;11.48;;
38083;SDS011;23894;51.466;7.444;2023-07-29T05:44:14;14.75;;;10.85;;
38083;SDS011;23894;51.466;7.444;2023-07-29T05:46:16;13.55;;;10.38;;
38083;SDS011;23894;51.466;7.444;2023-07-29T05:48:21;16.00;;;11.27;;
38083;SDS011;23894;51.466;7.444;2023-07-29T05:50:23;15.88;;;11.43;;
38083;SDS011;23894;51.466;7.444;2023-07-29T05:52:26;19.42;;;12.48;;
38083;SDS011;23894;51.466;7.444;2023-07-29T05:54:28;17.67;;;13.60;;
38083;SDS011;23894;51.466;7.444;2023-07-29T05:56:30;18.98;;;13.73;;
38083;SDS011;23894;51.466;7.444;2023-07-29T05:58:32;17.33;;;13.63;;
38083;SDS011;23894;51.466;7.444;2023-07-29T06:00:35;18.95;;;13.52;;
38083;SDS011;23894;51.466;7.444;2023-07-29T06:02:37;19.20;;;14.52;;
38083;SDS011;23894;51.466;7.444;2023-07-29T06:04:39;18.13;;;14.82;;
38083;SDS011;23894;51.466;7.444;2023-07-29T06:06:40;20.65;;;15.85;;
38083;SDS011;23894;51.466;7.444;2023-07-29T06:10:44;22.13;;;15.98;;
38083;SDS011;23894;51.466;7.444;2023-07-29T06:12:46;22.52;;;17.23;;
38083;SDS011;23894;51.466;7.444;2023-07-29T06:14:48;22.48;;;16.20;;
38083;SDS011;23894;51.466;7.444;2023-07-29T06:16:52;22.73;;;15.82;;
38083;SDS011;23894;51.466;7.444;2023-07-29T06:18:53;22.10;;;15.63;;
38083;SDS011;23894;51.466;7.444;2023-07-29T06:22:56;17.98;;;12.57;;
38083;SDS011;23894;51.466;7.444;2023-07-29T06:24:58;19.77;;;13.85;;
38083;SDS011;23894;51.466;7.444;2023-07-29T06:27:01;23.92;;;14.60;;
38083;SDS011;23894;51.466;7.444;2023-07-29T06:29:04;18.35;;;14.23;;
38083;SDS011;23894;51.466;7.444;2023-07-29T06:31:06;18.02;;;13.15;;
38083;SDS011;23894;51.466;7.444;2023-07-29T06:33:08;18.25;;;13.32;;
38083;SDS011;23894;51.466;7.444;2023-07-29T06:35:11;17.35;;;12.73;;
38083;SDS011;23894;51.466;7.444;2023-07-29T06:37:13;17.63;;;13.20;;
38083;SDS011;23894;51.466;7.444;2023-07-29T06:39:15;17.85;;;13.90;;
38083;SDS011;23894;51.466;7.444;2023-07-29T06:41:18;22.35;;;13.15;;
38083;SDS011;23894;51.466;7.444;2023-07-29T06:43:20;20.08;;;14.35;;
38083;SDS011;23894;51.466;7.444;2023-07-29T06:45:22;14.55;;;10.70;;
38083;SDS011;23894;51.466;7.444;2023-07-29T06:47:24;13.48;;;9.68;;
38083;SDS011;23894;51.466;7.444;2023-07-29T06:49:27;11.93;;;9.00;;
38083;SDS011;23894;51.466;7.444;2023-07-29T06:51:29;12.23;;;8.43;;
38083;SDS011;23894;51.466;7.444;2023-07-29T06:53:33;11.30;;;8.05;;
38083;SDS011;23894;51.466;7.444;2023-07-29T06:55:35;12.65;;;7.68;;
38083;SDS011;23894;51.466;7.444;2023-07-29T06:57:38;9.48;;;7.00;;
38083;SDS011;23894;51.466;7.444;2023-07-29T06:59:40;12.80;;;6.75;;
38083;SDS011;23894;51.466;7.444;2023-07-29T07:01:43;8.43;;;5.65;;
38083;SDS011;23894;51.466;7.444;2023-07-29T07:03:44;8.75;;;5.47;;
38083;SDS011;23894;51.466;7.444;2023-07-29T07:07:47;8.60;;;4.88;;
38083;SDS011;23894;51.466;7.444;2023-07-29T07:11:51;6.45;;;4.22;;
38083;SDS011;23894;51.466;7.444;2023-07-29T07:13:52;8.52;;;4.45;;
38083;SDS011;23894;51.466;7.444;2023-07-29T07:15:55;7.25;;;4.47;;
38083;SDS011;23894;51.466;7.444;2023-07-29T07:17:58;6.15;;;3.65;;
38083;SDS011;23894;51.466;7.444;2023-07-29T07:20:00;6.88;;;3.60;;
38083;SDS011;23894;51.466;7.444;2023-07-29T07:22:02;7.55;;;3.72;;
38083;SDS011;23894;51.466;7.444;2023-07-29T07:24:05;7.13;;;3.42;;
38083;SDS011;23894;51.466;7.444;2023-07-29T07:26:07;6.50;;;3.40;;
38083;SDS011;23894;51.466;7.444;2023-07-29T07:28:10;7.10;;;3.67;;
38083;SDS011;23894;51.466;7.444;2023-07-29T07:30:11;8.35;;;3.78;;
38083;SDS011;23894;51.466;7.444;2023-07-29T07:32:13;8.27;;;3.78;;
38083;SDS011;23894;51.466;7.444;2023-07-29T07:34:14;9.20;;;4.35;;
38083;SDS011;23894;51.466;7.444;2023-07-29T07:38:18;7.63;;;4.00;;
38083;SDS011;23894;51.466;7.444;2023-07-29T07:40:21;5.80;;;3.30;;
38083;SDS011;23894;51.466;7.444;2023-07-29T07:42:23;6.47;;;3.30;;
38083;SDS011;23894;51.466;7.444;2023-07-29T07:44:25;7.43;;;3.08;;
38083;SDS011;23894;51.466;7.444;2023-07-29T07:46:28;6.05;;;2.88;;
38083;SDS011;23894;51.466;7.444;2023-07-29T07:48:30;6.22;;;3.10;;
38083;SDS011;23894;51.466;7.444;2023-07-29T07:50:34;6.15;;;2.90;;
38083;SDS011;23894;51.466;7.444;2023-07-29T07:52:38;5.70;;;3.30;;
38083;SDS011;23894;51.466;7.444;2023-07-29T07:54:40;8.13;;;3.45;;
38083;SDS011;23894;51.466;7.444;2023-07-29T07:56:42;6.03;;;3.20;;
38083;SDS011;23894;51.466;7.444;2023-07-29T07:58:45;8.13;;;3.00;;
38083;SDS011;23894;51.466;7.444;2023-07-29T08:00:47;5.80;;;2.95;;
38083;SDS011;23894;51.466;7.444;2023-07-29T08:02:49;5.32;;;2.78;;
38083;SDS011;23894;51.466;7.444;2023-07-29T08:04:51;6.15;;;3.17;;
38083;SDS011;23894;51.466;7.444;2023-07-29T08:06:54;6.32;;;2.92;;
38083;SDS011;23894;51.466;7.444;2023-07-29T08:08:55;5.03;;;2.70;;
38083;SDS011;23894;51.466;7.444;2023-07-29T08:12:59;5.43;;;2.17;;
38083;SDS011;23894;51.466;7.444;2023-07-29T08:15:02;5.00;;;2.40;;
38083;SDS011;23894;51.466;7.444;2023-07-29T08:17:07;6.32;;;2.28;;
38083;SDS011;23894;51.466;7.444;2023-07-29T08:19:09;5.03;;;2.47;;
38083;SDS011;23894;51.466;7.444;2023-07-29T08:21:13;4.63;;;2.10;;
38083;SDS011;23894;51.466;7.444;2023-07-29T08:23:15;5.32;;;2.13;;
38083;SDS011;23894;51.466;7.444;2023-07-29T08:25:17;4.88;;;2.28;;
38083;SDS011;23894;51.466;7.444;2023-07-29T08:27:19;5.47;;;2.15;;
38083;SDS011;23894;51.466;7.444;2023-07-29T08:29:21;7.55;;;2.38;;
38083;SDS011;23894;51.466;7.444;2023-07-29T08:31:24;5.57;;;2.28;;
38083;SDS011;23894;51.466;7.444;2023-07-29T08:33:27;4.88;;;2.30;;
38083;SDS011;23894;51.466;7.444;2023-07-29T08:35:30;4.32;;;1.90;;
38083;SDS011;23894;51.466;7.444;2023-07-29T08:37:32;4.10;;;1.90;;
38083;SDS011;23894;51.466;7.444;2023-07-29T08:39:34;6.10;;;2.20;;
38083;SDS011;23894;51.466;7.444;2023-07-29T08:41:41;4.40;;;2.05;;
38083;SDS011;23894;51.466;7.444;2023-07-29T08:43:56;4.15;;;1.90;;
38083;SDS011;23894;51.466;7.444;2023-07-29T08:46:02;4.13;;;1.95;;
38083;SDS011;23894;51.466;7.444;2023-07-29T08:48:08;6.05;;;2.17;;
38083;SDS011;23894;51.466;7.444;2023-07-29T08:50:12;5.10;;;1.85;;
38083;SDS011;23894;51.466;7.444;2023-07-29T08:52:17;4.10;;;1.60;;
38083;SDS011;23894;51.466;7.444;2023-07-29T08:54:20;6.10;;;1.63;;
38083;SDS011;23894;51.466;7.444;2023-07-29T08:56:24;4.72;;;1.60;;
38083;SDS011;23894;51.466;7.444;2023-07-29T08:58:26;3.60;;;1.33;;
38083;SDS011;23894;51.466;7.444;2023-07-29T09:00:29;4.43;;;1.60;;
38083;SDS011;23894;51.466;7.444;2023-07-29T09:02:30;3.20;;;1.40;;
38083;SDS011;23894;51.466;7.444;2023-07-29T09:04:33;3.80;;;1.40;;
38083;SDS011;23894;51.466;7.444;2023-07-29T09:06:37;3.67;;;1.50;;
38083;SDS011;23894;51.466;7.444;2023-07-29T09:08:40;4.20;;;1.58;;
38083;SDS011;23894;51.466;7.444;2023-07-29T09:10:43;4.70;;;1.90;;
38083;SDS011;23894;51.466;7.444;2023-07-29T09:12:45;3.13;;;1.33;;
38083;SDS011;23894;51.466;7.444;2023-07-29T09:14:51;4.22;;;1.60;;
38083;SDS011;23894;51.466;7.444;2023-07-29T09:16:54;4.38;;;1.73;;
38083;SDS011;23894;51.466;7.444;2023-07-29T09:18:56;4.25;;;1.33;;
38083;SDS011;23894;51.466;7.444;2023-07-29T09:21:03;3.67;;;1.60;;
38083;SDS011;23894;51.466;7.444;2023-07-29T09:23:07;3.72;;;1.70;;
38083;SDS011;23894;51.466;7.444;2023-07-29T09:25:10;4.30;;;1.80;;
38083;SDS011;23894;51.466;7.444;2023-07-29T09:27:28;3.90;;;1.70;;
38083;SDS011;23894;51.466;7.444;2023-07-29T09:29:35;3.92;;;1.70;;
38083;SDS011;23894;51.466;7.444;2023-07-29T09:31:36;4.50;;;2.08;;
38083;SDS011;23894;51.466;7.444;2023-07-29T09:33:40;6.40;;;1.98;;
38083;SDS011;23894;51.466;7.444;2023-07-29T09:35:42;4.63;;;1.90;;
38083;SDS011;23894;51.466;7.444;2023-07-29T09:37:44;4.45;;;1.85;;
38083;SDS011;23894;51.466;7.444;2023-07-29T09:39:47;4.13;;;1.80;;
38083;SDS011;23894;51.466;7.444;2023-07-29T09:41:50;4.88;;;1.98;;
38083;SDS011;23894;51.466;7.444;2023-07-29T09:43:55;3.67;;;1.92;;
38083;SDS011;23894;51.466;7.444;2023-07-29T09:46:01;4.47;;;1.92;;
38083;SDS011;23894;51.466;7.444;2023-07-29T09:48:09;3.55;;;1.75;;
38083;SDS011;23894;51.466;7.444;2023-07-29T09:50:11;4.13;;;1.80;;
38083;SDS011;23894;51.466;7.444;2023-07-29T09:54:12;3.35;;;1.40;;
38083;SDS011;23894;51.466;7.444;2023-07-29T09:56:16;2.92;;;1.38;;
38083;SDS011;23894;51.466;7.444;2023-07-29T09:58:19;5.93;;;1.60;;
38083;SDS011;23894;51.466;7.444;2023-07-29T10:00:20;3.40;;;1.20;;
38083;SDS011;23894;51.466;7.444;2023-07-29T10:02:23;3.38;;;1.35;;
38083;SDS011;23894;51.466;7.444;2023-07-29T10:04:26;4.50;;;1.40;;
38083;SDS011;23894;51.466;7.444;2023-07-29T10:06:29;4.30;;;1.40;;
38083;SDS011;23894;51.466;7.444;2023-07-29T10:08:32;4.70;;;1.55;;
38083;SDS011;23894;51.466;7.444;2023-07-29T10:10:42;3.22;;;1.55;;
38083;SDS011;23894;51.466;7.444;2023-07-29T10:12:44;3.30;;;1.30;;
38083;SDS011;23894;51.466;7.444;2023-07-29T10:14:47;4.03;;;1.60;;
38083;SDS011;23894;51.466;7.444;2023-07-29T10:16:51;4.43;;;1.83;;
38083;SDS011;23894;51.466;7.444;2023-07-29T10:18:53;3.25;;;1.50;;
38083;SDS011;23894;51.466;7.444;2023-07-29T10:20:56;3.42;;;1.67;;
38083;SDS011;23894;51.466;7.444;2023-07-29T10:22:59;3.45;;;1.60;;
38083;SDS011;23894;51.466;7.444;2023-07-29T10:25:02;3.95;;;2.00;;
38083;SDS011;23894;51.466;7.444;2023-07-29T10:27:06;4.25;;;1.73;;
38083;SDS011;23894;51.466;7.444;2023-07-29T10:29:07;4.20;;;1.75;;
38083;SDS011;23894;51.466;7.444;2023-07-29T10:31:11;4.10;;;1.70;;
38083;SDS011;23894;51.466;7.444;2023-07-29T10:33:14;3.85;;;1.80;;
38083;SDS011;23894;51.466;7.444;2023-07-29T10:35:17;4.90;;;1.50;;
38083;SDS011;23894;51.466;7.444;2023-07-29T10:37:19;3.80;;;1.52;;
38083;SDS011;23894;51.466;7.444;2023-07-29T10:39:23;5.13;;;1.75;;
38083;SDS011;23894;51.466;7.444;2023-07-29T10:41:53;3.30;;;1.48;;
38083;SDS011;23894;51.466;7.444;2023-07-29T10:43:48;3.95;;;1.88;;
38083;SDS011;23894;51.466;7.444;2023-07-29T10:45:51;3.60;;;1.70;;
38083;SDS011;23894;51.466;7.444;2023-07-29T10:47:53;4.80;;;2.00;;
38083;SDS011;23894;51.466;7.444;2023-07-29T10:49:56;4.93;;;1.80;;
38083;SDS011;23894;51.466;7.444;2023-07-29T10:51:58;4.10;;;1.60;;
38083;SDS011;23894;51.466;7.444;2023-07-29T10:54:13;3.75;;;1.60;;
38083;SDS011;23894;51.466;7.444;2023-07-29T10:56:24;3.63;;;1.48;;
38083;SDS011;23894;51.466;7.444;2023-07-29T10:58:26;3.92;;;1.77;;
38083;SDS011;23894;51.466;7.444;2023-07-29T11:00:32;4.15;;;2.00;;
38083;SDS011;23894;51.466;7.444;2023-07-29T11:02:38;4.93;;;1.85;;
38083;SDS011;23894;51.466;7.444;2023-07-29T11:04:50;4.70;;;1.77;;
38083;SDS011;23894;51.466;7.444;2023-07-29T11:11:32;4.10;;;1.80;;
38083;SDS011;23894;51.466;7.444;2023-07-29T11:13:36;4.40;;;2.10;;
38083;SDS011;23894;51.466;7.444;2023-07-29T11:15:38;4.20;;;2.20;;
38083;SDS011;23894;51.466;7.444;2023-07-29T11:17:48;3.97;;;1.75;;
38083;SDS011;23894;51.466;7.444;2023-07-29T11:19:51;4.47;;;1.77;;
38083;SDS011;23894;51.466;7.444;2023-07-29T11:21:54;3.38;;;1.52;;
38083;SDS011;23894;51.466;7.444;2023-07-29T11:23:56;3.55;;;1.55;;
38083;SDS011;23894;51.466;7.444;2023-07-29T11:26:00;3.65;;;1.50;;
38083;SDS011;23894;51.466;7.444;2023-07-29T11:28:03;4.00;;;1.50;;
38083;SDS011;23894;51.466;7.444;2023-07-29T11:30:06;4.13;;;1.52;;
38083;SDS011;23894;51.466;7.444;2023-07-29T11:32:09;3.53;;;1.40;;
38083;SDS011;23894;51.466;7.444;2023-07-29T11:34:11;4.93;;;1.83;;
38083;SDS011;23894;51.466;7.444;2023-07-29T11:36:19;3.42;;;1.40;;
38083;SDS011;23894;51.466;7.444;2023-07-29T11:38:22;8.65;;;1.80;;
38083;SDS011;23894;51.466;7.444;2023-07-29T11:40:25;3.15;;;1.40;;
38083;SDS011;23894;51.466;7.444;2023-07-29T11:42:27;2.88;;;1.25;;
38083;SDS011;23894;51.466;7.444;2023-07-29T11:44:29;3.97;;;1.70;;
38083;SDS011;23894;51.466;7.444;2023-07-29T11:46:32;4.55;;;1.48;;
38083;SDS011;23894;51.466;7.444;2023-07-29T11:48:36;3.88;;;1.50;;
38083;SDS011;23894;51.466;7.444;2023-07-29T11:50:38;3.53;;;1.30;;
38083;SDS011;23894;51.466;7.444;2023-07-29T11:52:41;2.90;;;1.15;;
38083;SDS011;23894;51.466;7.444;2023-07-29T11:54:44;7.50;;;1.90;;
38083;SDS011;23894;51.466;7.444;2023-07-29T11:56:47;4.63;;;1.40;;
38083;SDS011;23894;51.466;7.444;2023-07-29T11:58:49;3.78;;;1.40;;
38083;SDS011;23894;51.466;7.444;2023-07-29T12:00:51;3.25;;;1.23;;
38083;SDS011;23894;51.466;7.444;2023-07-29T12:02:54;3.05;;;1.27;;
38083;SDS011;23894;51.466;7.444;2023-07-29T12:04:58;3.72;;;1.50;;
38083;SDS011;23894;51.466;7.444;2023-07-29T12:07:00;4.63;;;1.48;;
38083;SDS011;23894;51.466;7.444;2023-07-29T12:09:02;4.10;;;1.60;;
38083;SDS011;23894;51.466;7.444;2023-07-29T12:11:05;5.82;;;1.50;;
38083;SDS011;23894;51.466;7.444;2023-07-29T12:13:07;4.50;;;1.50;;
38083;SDS011;23894;51.466;7.444;2023-07-29T12:15:10;4.38;;;1.65;;
38083;SDS011;23894;51.466;7.444;2023-07-29T12:17:13;5.13;;;1.60;;
38083;SDS011;23894;51.466;7.444;2023-07-29T12:19:15;3.80;;;1.27;;
38083;SDS011;23894;51.466;7.444;2023-07-29T12:21:19;4.28;;;1.60;;
38083;SDS011;23894;51.466;7.444;2023-07-29T12:23:24;4.22;;;1.55;;
38083;SDS011;23894;51.466;7.444;2023-07-29T12:25:26;3.80;;;1.70;;
38083;SDS011;23894;51.466;7.444;2023-07-29T12:27:29;3.25;;;1.35;;
38083;SDS011;23894;51.466;7.444;2023-07-29T12:29:32;4.55;;;1.63;;
38083;SDS011;23894;51.466;7.444;2023-07-29T12:31:42;3.70;;;1.20;;
38083;SDS011;23894;51.466;7.444;2023-07-29T12:33:44;3.80;;;1.60;;
38083;SDS011;23894;51.466;7.444;2023-07-29T12:35:47;4.85;;;1.65;;
38083;SDS011;23894;51.466;7.444;2023-07-29T12:37:58;3.33;;;1.30;;
38083;SDS011;23894;51.466;7.444;2023-07-29T12:39:59;3.58;;;1.67;;
38083;SDS011;23894;51.466;7.444;2023-07-29T12:42:02;5.63;;;1.60;;
38083;SDS011;23894;51.466;7.444;2023-07-29T12:44:05;3.33;;;1.45;;
38083;SDS011;23894;51.466;7.444;2023-07-29T12:46:08;4.63;;;2.10;;
38083;SDS011;23894;51.466;7.444;2023-07-29T12:48:11;6.68;;;2.15;;
38083;SDS011;23894;51.466;7.444;2023-07-29T12:50:13;4.50;;;1.90;;
38083;SDS011;23894;51.466;7.444;2023-07-29T12:52:15;4.63;;;1.65;;
38083;SDS011;23894;51.466;7.444;2023-07-29T12:54:19;6.30;;;2.08;;
38083;SDS011;23894;51.466;7.444;2023-07-29T12:56:21;7.50;;;2.58;;
38083;SDS011;23894;51.466;7.444;2023-07-29T12:58:23;5.55;;;1.70;;
38083;SDS011;23894;51.466;7.444;2023-07-29T13:00:27;8.40;;;1.92;;
38083;SDS011;23894;51.466;7.444;2023-07-29T13:02:29;3.67;;;1.55;;
38083;SDS011;23894;51.466;7.444;2023-07-29T13:04:31;4.03;;;1.60;;